sensor_id;sensor_type;location;lat;lon;timestamp;P1;durP1;ratioP1;P2;durP2;ratioP2
76689;SDS011;70102;44.506;0.220;2023-11-22T00:04:42;2.33;;;1.73;;
76689;SDS011;70102;44.506;0.220;2023-11-22T00:10:14;3.77;;;1.97;;
76689;SDS011;70102;44.506;0.220;2023-11-22T00:15:48;2.30;;;1.73;;
76689;SDS011;70102;44.506;0.220;2023-11-22T00:21:22;2.13;;;1.93;;
76689;SDS011;70102;44.506;0.220;2023-11-22T00:26:56;2.50;;;2.30;;
76689;SDS011;70102;44.506;0.220;2023-11-22T00:32:28;4.57;;;2.07;;
76689;SDS011;70102;44.506;0.220;2023-11-22T00:38:02;1.80;;;1.70;;
76689;SDS011;70102;44.506;0.220;2023-11-22T00:43:35;2.50;;;1.90;;
76689;SDS011;70102;44.506;0.220;2023-11-22T00:49:08;2.83;;;1.50;;
76689;SDS011;70102;44.506;0.220;2023-11-22T00:54:41;1.83;;;1.60;;
76689;SDS011;70102;44.506;0.220;2023-11-22T01:00:14;2.50;;;1.93;;
76689;SDS011;70102;44.506;0.220;2023-11-22T01:05:47;1.60;;;1.40;;
76689;SDS011;70102;44.506;0.220;2023-11-22T01:11:21;1.70;;;1.60;;
76689;SDS011;70102;44.506;0.220;2023-11-22T01:16:54;1.93;;;1.30;;
76689;SDS011;70102;44.506;0.220;2023-11-22T01:22:27;2.43;;;1.40;;
76689;SDS011;70102;44.506;0.220;2023-11-22T01:28:01;1.63;;;1.50;;
76689;SDS011;70102;44.506;0.220;2023-11-22T01:33:34;2.17;;;1.97;;
76689;SDS011;70102;44.506;0.220;2023-11-22T01:39:07;1.70;;;1.60;;
76689;SDS011;70102;44.506;0.220;2023-11-22T01:44:40;2.23;;;1.60;;
76689;SDS011;70102;44.506;0.220;2023-11-22T01:50:13;2.07;;;1.60;;
76689;SDS011;70102;44.506;0.220;2023-11-22T01:55:47;1.33;;;1.17;;
76689;SDS011;70102;44.506;0.220;2023-11-22T02:01:20;2.00;;;1.50;;
76689;SDS011;70102;44.506;0.220;2023-11-22T02:06:53;2.93;;;1.97;;
76689;SDS011;70102;44.506;0.220;2023-11-22T02:12:26;3.57;;;2.00;;
76689;SDS011;70102;44.506;0.220;2023-11-22T02:18:00;1.93;;;1.50;;
76689;SDS011;70102;44.506;0.220;2023-11-22T02:23:32;1.53;;;1.43;;
76689;SDS011;70102;44.506;0.220;2023-11-22T02:29:05;2.30;;;1.60;;
76689;SDS011;70102;44.506;0.220;2023-11-22T02:34:38;1.60;;;1.23;;
76689;SDS011;70102;44.506;0.220;2023-11-22T02:40:12;2.03;;;1.87;;
76689;SDS011;70102;44.506;0.220;2023-11-22T02:45:42;2.73;;;1.77;;
76689;SDS011;70102;44.506;0.220;2023-11-22T02:51:14;1.80;;;1.13;;
76689;SDS011;70102;44.506;0.220;2023-11-22T02:56:47;1.43;;;1.33;;
76689;SDS011;70102;44.506;0.220;2023-11-22T03:02:21;3.23;;;1.50;;
76689;SDS011;70102;44.506;0.220;2023-11-22T03:07:54;1.27;;;1.17;;
76689;SDS011;70102;44.506;0.220;2023-11-22T03:13:26;8.27;;;1.43;;
76689;SDS011;70102;44.506;0.220;2023-11-22T03:18:58;1.37;;;1.20;;
76689;SDS011;70102;44.506;0.220;2023-11-22T03:24:30;4.00;;;1.23;;
76689;SDS011;70102;44.506;0.220;2023-11-22T03:30:04;2.10;;;1.50;;
76689;SDS011;70102;44.506;0.220;2023-11-22T03:35:36;2.37;;;1.40;;
76689;SDS011;70102;44.506;0.220;2023-11-22T03:41:09;2.40;;;1.63;;
76689;SDS011;70102;44.506;0.220;2023-11-22T03:46:41;1.53;;;1.43;;
76689;SDS011;70102;44.506;0.220;2023-11-22T03:52:13;1.73;;;1.33;;
76689;SDS011;70102;44.506;0.220;2023-11-22T03:57:46;2.47;;;1.80;;
76689;SDS011;70102;44.506;0.220;2023-11-22T04:03:19;1.57;;;1.47;;
76689;SDS011;70102;44.506;0.220;2023-11-22T04:08:52;6.57;;;2.57;;
76689;SDS011;70102;44.506;0.220;2023-11-22T04:14:26;1.93;;;1.23;;
76689;SDS011;70102;44.506;0.220;2023-11-22T04:19:58;3.10;;;1.63;;
76689;SDS011;70102;44.506;0.220;2023-11-22T04:25:31;4.47;;;2.30;;
76689;SDS011;70102;44.506;0.220;2023-11-22T04:31:05;3.30;;;1.30;;
76689;SDS011;70102;44.506;0.220;2023-11-22T04:36:37;3.73;;;1.90;;
76689;SDS011;70102;44.506;0.220;2023-11-22T04:42:10;2.00;;;1.80;;
76689;SDS011;70102;44.506;0.220;2023-11-22T04:47:44;1.63;;;1.50;;
76689;SDS011;70102;44.506;0.220;2023-11-22T04:53:16;2.03;;;1.73;;
76689;SDS011;70102;44.506;0.220;2023-11-22T04:58:48;4.93;;;2.23;;
76689;SDS011;70102;44.506;0.220;2023-11-22T05:04:22;2.00;;;1.77;;
76689;SDS011;70102;44.506;0.220;2023-11-22T05:09:54;1.57;;;1.40;;
76689;SDS011;70102;44.506;0.220;2023-11-22T05:15:28;5.00;;;1.60;;
76689;SDS011;70102;44.506;0.220;2023-11-22T05:20:59;2.40;;;1.80;;
76689;SDS011;70102;44.506;0.220;2023-11-22T05:26:32;6.87;;;2.30;;
76689;SDS011;70102;44.506;0.220;2023-11-22T05:32:06;4.20;;;1.53;;
76689;SDS011;70102;44.506;0.220;2023-11-22T05:37:39;8.10;;;6.03;;
76689;SDS011;70102;44.506;0.220;2023-11-22T05:43:12;3.30;;;2.17;;
76689;SDS011;70102;44.506;0.220;2023-11-22T05:48:45;5.77;;;2.27;;
76689;SDS011;70102;44.506;0.220;2023-11-22T05:54:18;3.50;;;2.20;;
76689;SDS011;70102;44.506;0.220;2023-11-22T05:59:52;2.50;;;1.80;;
76689;SDS011;70102;44.506;0.220;2023-11-22T06:05:25;2.23;;;1.87;;
76689;SDS011;70102;44.506;0.220;2023-11-22T06:10:59;2.93;;;1.97;;
76689;SDS011;70102;44.506;0.220;2023-11-22T06:16:31;4.03;;;2.43;;
76689;SDS011;70102;44.506;0.220;2023-11-22T06:22:04;2.70;;;1.47;;
76689;SDS011;70102;44.506;0.220;2023-11-22T06:27:37;5.57;;;2.03;;
76689;SDS011;70102;44.506;0.220;2023-11-22T06:33:10;4.03;;;2.20;;
76689;SDS011;70102;44.506;0.220;2023-11-22T06:38:44;3.37;;;2.00;;
76689;SDS011;70102;44.506;0.220;2023-11-22T06:44:16;3.17;;;2.13;;
76689;SDS011;70102;44.506;0.220;2023-11-22T06:49:50;3.67;;;2.03;;
76689;SDS011;70102;44.506;0.220;2023-11-22T06:55:23;3.50;;;1.70;;
76689;SDS011;70102;44.506;0.220;2023-11-22T07:00:57;2.47;;;2.13;;
76689;SDS011;70102;44.506;0.220;2023-11-22T07:06:29;3.77;;;2.30;;
76689;SDS011;70102;44.506;0.220;2023-11-22T07:12:03;3.90;;;2.07;;
76689;SDS011;70102;44.506;0.220;2023-11-22T07:17:35;4.10;;;2.00;;
76689;SDS011;70102;44.506;0.220;2023-11-22T07:23:08;2.30;;;1.97;;
76689;SDS011;70102;44.506;0.220;2023-11-22T07:28:41;2.20;;;2.00;;
76689;SDS011;70102;44.506;0.220;2023-11-22T07:34:14;2.17;;;1.97;;
76689;SDS011;70102;44.506;0.220;2023-11-22T07:39:47;2.47;;;2.10;;
76689;SDS011;70102;44.506;0.220;2023-11-22T07:45:21;1.53;;;1.40;;
76689;SDS011;70102;44.506;0.220;2023-11-22T07:50:55;4.30;;;1.83;;
76689;SDS011;70102;44.506;0.220;2023-11-22T07:56:27;2.13;;;1.73;;
76689;SDS011;70102;44.506;0.220;2023-11-22T08:01:59;2.83;;;2.10;;
76689;SDS011;70102;44.506;0.220;2023-11-22T08:07:32;3.73;;;2.43;;
76689;SDS011;70102;44.506;0.220;2023-11-22T08:13:04;1.80;;;1.70;;
76689;SDS011;70102;44.506;0.220;2023-11-22T08:18:38;2.50;;;2.20;;
76689;SDS011;70102;44.506;0.220;2023-11-22T08:24:10;2.47;;;2.10;;
76689;SDS011;70102;44.506;0.220;2023-11-22T08:29:42;1.63;;;1.30;;
76689;SDS011;70102;44.506;0.220;2023-11-22T08:35:15;2.30;;;1.80;;
76689;SDS011;70102;44.506;0.220;2023-11-22T08:40:49;4.07;;;2.83;;
76689;SDS011;70102;44.506;0.220;2023-11-22T08:46:23;3.03;;;2.20;;
76689;SDS011;70102;44.506;0.220;2023-11-22T08:51:55;2.27;;;1.60;;
76689;SDS011;70102;44.506;0.220;2023-11-22T08:57:27;2.30;;;1.53;;
76689;SDS011;70102;44.506;0.220;2023-11-22T09:03:00;3.03;;;1.60;;
76689;SDS011;70102;44.506;0.220;2023-11-22T09:08:33;1.67;;;1.27;;
76689;SDS011;70102;44.506;0.220;2023-11-22T09:14:04;1.87;;;1.57;;
76689;SDS011;70102;44.506;0.220;2023-11-22T09:19:38;1.17;;;1.10;;
76689;SDS011;70102;44.506;0.220;2023-11-22T09:25:12;1.20;;;1.10;;
76689;SDS011;70102;44.506;0.220;2023-11-22T09:30:44;2.27;;;2.03;;
76689;SDS011;70102;44.506;0.220;2023-11-22T09:36:17;3.07;;;1.57;;
76689;SDS011;70102;44.506;0.220;2023-11-22T09:41:50;1.47;;;1.37;;
76689;SDS011;70102;44.506;0.220;2023-11-22T09:47:23;2.90;;;1.20;;
76689;SDS011;70102;44.506;0.220;2023-11-22T09:52:55;1.43;;;1.17;;
76689;SDS011;70102;44.506;0.220;2023-11-22T09:58:29;3.47;;;1.80;;
76689;SDS011;70102;44.506;0.220;2023-11-22T10:04:02;1.07;;;1.00;;
76689;SDS011;70102;44.506;0.220;2023-11-22T10:09:36;1.87;;;1.10;;
76689;SDS011;70102;44.506;0.220;2023-11-22T10:15:12;1.23;;;1.13;;
76689;SDS011;70102;44.506;0.220;2023-11-22T10:20:42;1.27;;;1.17;;
76689;SDS011;70102;44.506;0.220;2023-11-22T10:26:14;3.43;;;1.30;;
76689;SDS011;70102;44.506;0.220;2023-11-22T10:31:46;3.47;;;1.50;;
76689;SDS011;70102;44.506;0.220;2023-11-22T10:37:20;3.27;;;1.20;;
76689;SDS011;70102;44.506;0.220;2023-11-22T10:42:53;1.43;;;1.20;;
76689;SDS011;70102;44.506;0.220;2023-11-22T10:48:27;2.97;;;1.10;;
76689;SDS011;70102;44.506;0.220;2023-11-22T10:54:00;6.40;;;1.57;;
76689;SDS011;70102;44.506;0.220;2023-11-22T10:59:32;1.73;;;1.00;;
76689;SDS011;70102;44.506;0.220;2023-11-22T11:05:07;0.80;;;0.80;;
76689;SDS011;70102;44.506;0.220;2023-11-22T11:10:38;0.77;;;0.70;;
76689;SDS011;70102;44.506;0.220;2023-11-22T11:16:10;0.97;;;0.80;;
76689;SDS011;70102;44.506;0.220;2023-11-22T11:21:43;1.67;;;0.67;;
76689;SDS011;70102;44.506;0.220;2023-11-22T11:27:16;0.80;;;0.80;;
76689;SDS011;70102;44.506;0.220;2023-11-22T11:32:50;1.23;;;0.60;;
76689;SDS011;70102;44.506;0.220;2023-11-22T11:38:21;1.03;;;0.60;;
76689;SDS011;70102;44.506;0.220;2023-11-22T11:43:55;0.57;;;0.50;;
76689;SDS011;70102;44.506;0.220;2023-11-22T11:49:27;0.67;;;0.67;;
76689;SDS011;70102;44.506;0.220;2023-11-22T11:55:00;1.83;;;0.60;;
76689;SDS011;70102;44.506;0.220;2023-11-22T12:00:33;0.40;;;0.40;;
76689;SDS011;70102;44.506;0.220;2023-11-22T12:06:05;0.77;;;0.77;;
76689;SDS011;70102;44.506;0.220;2023-11-22T12:11:39;2.93;;;0.73;;
76689;SDS011;70102;44.506;0.220;2023-11-22T12:17:11;0.43;;;0.43;;
76689;SDS011;70102;44.506;0.220;2023-11-22T12:22:44;0.53;;;0.53;;
76689;SDS011;70102;44.506;0.220;2023-11-22T12:28:16;1.00;;;0.57;;
76689;SDS011;70102;44.506;0.220;2023-11-22T12:33:50;0.60;;;0.60;;
76689;SDS011;70102;44.506;0.220;2023-11-22T12:39:21;0.77;;;0.77;;
76689;SDS011;70102;44.506;0.220;2023-11-22T12:44:53;0.90;;;0.70;;
76689;SDS011;70102;44.506;0.220;2023-11-22T12:50:30;0.50;;;0.50;;
76689;SDS011;70102;44.506;0.220;2023-11-22T12:55:59;0.70;;;0.70;;
76689;SDS011;70102;44.506;0.220;2023-11-22T13:01:33;1.33;;;0.53;;
76689;SDS011;70102;44.506;0.220;2023-11-22T13:07:05;0.50;;;0.50;;
76689;SDS011;70102;44.506;0.220;2023-11-22T13:12:38;0.70;;;0.67;;
76689;SDS011;70102;44.506;0.220;2023-11-22T13:18:10;0.90;;;0.70;;
76689;SDS011;70102;44.506;0.220;2023-11-22T13:23:43;0.97;;;0.93;;
76689;SDS011;70102;44.506;0.220;2023-11-22T13:29:17;2.33;;;1.00;;
76689;SDS011;70102;44.506;0.220;2023-11-22T13:34:50;0.60;;;0.60;;
76689;SDS011;70102;44.506;0.220;2023-11-22T13:40:24;0.70;;;0.70;;
76689;SDS011;70102;44.506;0.220;2023-11-22T13:45:56;1.53;;;0.80;;
76689;SDS011;70102;44.506;0.220;2023-11-22T13:51:28;0.80;;;0.80;;
76689;SDS011;70102;44.506;0.220;2023-11-22T13:57:01;2.80;;;0.90;;
76689;SDS011;70102;44.506;0.220;2023-11-22T14:02:35;1.30;;;1.10;;
76689;SDS011;70102;44.506;0.220;2023-11-22T14:08:08;4.77;;;2.20;;
76689;SDS011;70102;44.506;0.220;2023-11-22T14:13:42;2.20;;;0.73;;
76689;SDS011;70102;44.506;0.220;2023-11-22T14:19:14;0.73;;;0.73;;
76689;SDS011;70102;44.506;0.220;2023-11-22T14:24:48;0.83;;;0.83;;
76689;SDS011;70102;44.506;0.220;2023-11-22T14:30:21;1.80;;;1.07;;
76689;SDS011;70102;44.506;0.220;2023-11-22T14:35:54;1.67;;;1.10;;
76689;SDS011;70102;44.506;0.220;2023-11-22T14:41:26;2.57;;;0.97;;
76689;SDS011;70102;44.506;0.220;2023-11-22T14:46:59;1.07;;;0.90;;
76689;SDS011;70102;44.506;0.220;2023-11-22T14:52:32;1.50;;;0.90;;
76689;SDS011;70102;44.506;0.220;2023-11-22T14:58:04;1.03;;;0.73;;
76689;SDS011;70102;44.506;0.220;2023-11-22T15:03:38;1.70;;;0.83;;
76689;SDS011;70102;44.506;0.220;2023-11-22T15:09:11;0.97;;;0.83;;
76689;SDS011;70102;44.506;0.220;2023-11-22T15:14:44;0.70;;;0.70;;
76689;SDS011;70102;44.506;0.220;2023-11-22T15:20:18;0.60;;;0.60;;
76689;SDS011;70102;44.506;0.220;2023-11-22T15:25:51;0.80;;;0.80;;
76689;SDS011;70102;44.506;0.220;2023-11-22T15:31:24;4.67;;;1.23;;
76689;SDS011;70102;44.506;0.220;2023-11-22T15:36:57;3.20;;;0.93;;
76689;SDS011;70102;44.506;0.220;2023-11-22T15:42:29;0.80;;;0.80;;
76689;SDS011;70102;44.506;0.220;2023-11-22T15:48:01;1.53;;;1.43;;
76689;SDS011;70102;44.506;0.220;2023-11-22T15:53:34;1.20;;;1.00;;
76689;SDS011;70102;44.506;0.220;2023-11-22T15:59:08;0.90;;;0.90;;
76689;SDS011;70102;44.506;0.220;2023-11-22T16:04:41;1.60;;;1.10;;
76689;SDS011;70102;44.506;0.220;2023-11-22T16:10:13;2.07;;;1.40;;
76689;SDS011;70102;44.506;0.220;2023-11-22T16:15:46;3.50;;;1.93;;
76689;SDS011;70102;44.506;0.220;2023-11-22T16:21:19;3.53;;;2.47;;
76689;SDS011;70102;44.506;0.220;2023-11-22T16:26:51;2.17;;;1.50;;
76689;SDS011;70102;44.506;0.220;2023-11-22T16:32:23;4.57;;;2.10;;
76689;SDS011;70102;44.506;0.220;2023-11-22T16:37:56;4.33;;;2.10;;
76689;SDS011;70102;44.506;0.220;2023-11-22T16:43:30;5.37;;;2.87;;
76689;SDS011;70102;44.506;0.220;2023-11-22T16:49:03;9.87;;;3.13;;
76689;SDS011;70102;44.506;0.220;2023-11-22T16:54:36;5.60;;;2.27;;
76689;SDS011;70102;44.506;0.220;2023-11-22T17:00:09;2.73;;;1.80;;
76689;SDS011;70102;44.506;0.220;2023-11-22T17:05:41;1.50;;;1.20;;
76689;SDS011;70102;44.506;0.220;2023-11-22T17:11:13;2.13;;;1.80;;
76689;SDS011;70102;44.506;0.220;2023-11-22T17:16:45;5.80;;;3.23;;
76689;SDS011;70102;44.506;0.220;2023-11-22T17:22:19;4.67;;;3.20;;
76689;SDS011;70102;44.506;0.220;2023-11-22T17:27:51;8.60;;;2.93;;
76689;SDS011;70102;44.506;0.220;2023-11-22T17:33:25;5.20;;;2.23;;
76689;SDS011;70102;44.506;0.220;2023-11-22T17:38:58;5.20;;;3.13;;
76689;SDS011;70102;44.506;0.220;2023-11-22T17:44:31;6.23;;;2.90;;
76689;SDS011;70102;44.506;0.220;2023-11-22T17:50:04;4.40;;;2.73;;
76689;SDS011;70102;44.506;0.220;2023-11-22T17:55:37;5.83;;;2.23;;
76689;SDS011;70102;44.506;0.220;2023-11-22T18:01:10;2.87;;;2.27;;
76689;SDS011;70102;44.506;0.220;2023-11-22T18:06:43;2.30;;;1.43;;
76689;SDS011;70102;44.506;0.220;2023-11-22T18:12:16;2.07;;;1.70;;
76689;SDS011;70102;44.506;0.220;2023-11-22T18:17:48;2.50;;;2.20;;
76689;SDS011;70102;44.506;0.220;2023-11-22T18:23:21;3.23;;;2.13;;
76689;SDS011;70102;44.506;0.220;2023-11-22T18:28:54;2.20;;;2.00;;
76689;SDS011;70102;44.506;0.220;2023-11-22T18:34:26;3.47;;;2.40;;
76689;SDS011;70102;44.506;0.220;2023-11-22T18:39:59;2.60;;;2.20;;
76689;SDS011;70102;44.506;0.220;2023-11-22T18:45:31;3.23;;;2.00;;
76689;SDS011;70102;44.506;0.220;2023-11-22T18:51:04;2.30;;;1.97;;
76689;SDS011;70102;44.506;0.220;2023-11-22T18:56:37;1.70;;;1.60;;
76689;SDS011;70102;44.506;0.220;2023-11-22T19:02:09;2.20;;;2.00;;
76689;SDS011;70102;44.506;0.220;2023-11-22T19:07:42;4.17;;;2.00;;
76689;SDS011;70102;44.506;0.220;2023-11-22T19:13:15;2.43;;;1.87;;
76689;SDS011;70102;44.506;0.220;2023-11-22T19:18:49;3.00;;;2.13;;
76689;SDS011;70102;44.506;0.220;2023-11-22T19:24:23;4.07;;;2.43;;
76689;SDS011;70102;44.506;0.220;2023-11-22T19:29:56;3.50;;;2.40;;
76689;SDS011;70102;44.506;0.220;2023-11-22T19:35:29;4.27;;;3.33;;
76689;SDS011;70102;44.506;0.220;2023-11-22T19:41:01;4.33;;;2.67;;
76689;SDS011;70102;44.506;0.220;2023-11-22T19:46:35;3.50;;;2.40;;
76689;SDS011;70102;44.506;0.220;2023-11-22T19:52:08;6.23;;;2.90;;
76689;SDS011;70102;44.506;0.220;2023-11-22T19:57:40;3.50;;;3.10;;
76689;SDS011;70102;44.506;0.220;2023-11-22T20:03:12;5.53;;;3.30;;
76689;SDS011;70102;44.506;0.220;2023-11-22T20:08:45;3.63;;;2.63;;
76689;SDS011;70102;44.506;0.220;2023-11-22T20:14:18;2.97;;;2.10;;
76689;SDS011;70102;44.506;0.220;2023-11-22T20:19:50;5.87;;;3.40;;
76689;SDS011;70102;44.506;0.220;2023-11-22T20:25:23;3.53;;;2.80;;
76689;SDS011;70102;44.506;0.220;2023-11-22T20:30:56;4.60;;;2.37;;
76689;SDS011;70102;44.506;0.220;2023-11-22T20:36:29;3.97;;;2.50;;
76689;SDS011;70102;44.506;0.220;2023-11-22T20:42:01;3.93;;;3.17;;
76689;SDS011;70102;44.506;0.220;2023-11-22T20:47:34;3.50;;;2.27;;
76689;SDS011;70102;44.506;0.220;2023-11-22T20:53:06;2.63;;;2.43;;
76689;SDS011;70102;44.506;0.220;2023-11-22T20:58:38;3.73;;;2.93;;
76689;SDS011;70102;44.506;0.220;2023-11-22T21:04:11;7.23;;;3.47;;
76689;SDS011;70102;44.506;0.220;2023-11-22T21:09:44;3.70;;;2.40;;
76689;SDS011;70102;44.506;0.220;2023-11-22T21:15:17;3.43;;;2.50;;
76689;SDS011;70102;44.506;0.220;2023-11-22T21:20:49;4.33;;;3.27;;
76689;SDS011;70102;44.506;0.220;2023-11-22T21:26:23;3.73;;;2.90;;
76689;SDS011;70102;44.506;0.220;2023-11-22T21:31:55;3.57;;;3.23;;
76689;SDS011;70102;44.506;0.220;2023-11-22T21:37:29;4.80;;;3.23;;
76689;SDS011;70102;44.506;0.220;2023-11-22T21:43:01;5.23;;;3.80;;
76689;SDS011;70102;44.506;0.220;2023-11-22T21:48:35;4.63;;;3.17;;
76689;SDS011;70102;44.506;0.220;2023-11-22T21:54:06;5.10;;;3.70;;
76689;SDS011;70102;44.506;0.220;2023-11-22T21:59:39;4.50;;;3.30;;
76689;SDS011;70102;44.506;0.220;2023-11-22T22:05:12;4.73;;;3.00;;
76689;SDS011;70102;44.506;0.220;2023-11-22T22:10:45;6.67;;;3.67;;
76689;SDS011;70102;44.506;0.220;2023-11-22T22:16:18;4.80;;;3.20;;
76689;SDS011;70102;44.506;0.220;2023-11-22T22:21:51;5.23;;;3.83;;
76689;SDS011;70102;44.506;0.220;2023-11-22T22:27:25;5.37;;;3.30;;
76689;SDS011;70102;44.506;0.220;2023-11-22T22:32:58;5.33;;;3.30;;
76689;SDS011;70102;44.506;0.220;2023-11-22T22:38:31;6.23;;;4.27;;
76689;SDS011;70102;44.506;0.220;2023-11-22T22:44:03;6.63;;;3.60;;
76689;SDS011;70102;44.506;0.220;2023-11-22T22:49:37;7.00;;;3.73;;
76689;SDS011;70102;44.506;0.220;2023-11-22T22:55:09;7.17;;;3.37;;
76689;SDS011;70102;44.506;0.220;2023-11-22T23:00:42;10.63;;;5.03;;
76689;SDS011;70102;44.506;0.220;2023-11-22T23:06:23;10.10;;;4.37;;
76689;SDS011;70102;44.506;0.220;2023-11-22T23:11:47;10.03;;;4.60;;
76689;SDS011;70102;44.506;0.220;2023-11-22T23:17:21;11.07;;;4.27;;
76689;SDS011;70102;44.506;0.220;2023-11-22T23:22:54;11.23;;;4.43;;
76689;SDS011;70102;44.506;0.220;2023-11-22T23:28:26;10.97;;;5.70;;
76689;SDS011;70102;44.506;0.220;2023-11-22T23:33:59;10.73;;;4.93;;
76689;SDS011;70102;44.506;0.220;2023-11-22T23:39:32;11.23;;;3.47;;
76689;SDS011;70102;44.506;0.220;2023-11-22T23:45:06;10.87;;;5.73;;
76689;SDS011;70102;44.506;0.220;2023-11-22T23:50:38;6.53;;;3.70;;
76689;SDS011;70102;44.506;0.220;2023-11-22T23:56:11;8.30;;;4.13;;
